fashiontv.com alexa rank chart, fashiontv.com alexa rank daily changes

fashiontv.com alexa rank chart, fashiontv.com alexa rank daily changes

fashiontv.com
Actual rank:
631 521

RANK HISTORY

Date Rank Diff
2017/02/28 631 521 +8 571
2017/02/27 622 950 -195 862
2017/02/26 818 812 +3 053
2017/02/25 815 759 +14 785
2017/02/24 800 974 +1 062
2017/02/23 799 912 +18 635
2017/02/22 781 277 -15 540
2017/02/21 796 817 -27 081
2017/02/20 823 898 +19 351
2017/02/19 804 547 +23 743
2017/02/18 780 804 +12 738
2017/02/17 768 066 +19 782
2017/02/16 748 284 +2 776
2017/02/15 745 508 +6 441
2017/02/14 739 067 -24 992
2017/02/13 764 059 -24 998
2017/02/12 789 057 -21 853
2017/02/11 810 910 -18 301
2017/02/10 829 211 -3 745
2017/02/09 832 956 -14 271
2017/02/08 847 227 -67 208
2017/02/07 914 435 -10 497
2017/02/06 924 932 +52 717
2017/02/05 872 215 +13 061
2017/02/04 859 154 -730
2017/02/03 859 884 -19 705
2017/02/02 879 589 -25 125
2017/02/01 904 714 +40 969
2017/01/31 863 745 +7 438
2017/01/30 856 307 -13 894
2017/01/29 870 201 +33 920
2017/01/28 836 281 -38 522
2017/01/27 874 803 +1 232
2017/01/26 873 571 -11 447
2017/01/25 885 018 +7 456
2017/01/24 877 562 -33 323
2017/01/23 910 885 -48 729
2017/01/22 959 614 -17 114
2017/01/21 976 728 +32 241
2017/01/20 944 487 -7 511
2017/01/19 951 998 -32 930
2017/01/18 984 928

WIDGET FOR YOUR SITE

DOMAINS WITH THE NEAREST RANK

Domain Rank
grooves.com 631 516
xn--m1q29bh7c247cpyuj6r.com 631 517
123lesidee.nl 631 518
millecanali.it 631 519
agri-web.eu 631 520
fashiontv.com 631 521
theturekclinic.com 631 522
perlsreading.com 631 523
kinetica-museum.org 631 524
athenafilmfestival.com 631 525
zerooneairsoft.com 631 526

DOMAINS WITH THE NEAREST RANK BY TLD .com

Domain Rank
oemfordpart.com 631 509
webhvac.com 631 510
eldantesonline.com 631 514
grooves.com 631 516
xn--m1q29bh7c247cpyuj6r.com 631 517
fashiontv.com 631 521
theturekclinic.com 631 522
perlsreading.com 631 523
athenafilmfestival.com 631 525
zerooneairsoft.com 631 526
brittabottle.com 631 529